Time;durP1;ratioP1;P1;durP2;ratioP2;P2;SDS_P1;SDS_P2;PMS_P1;PMS_P2;Temp;Humidity;BMP_temperature;BMP_pressure;BME280_temperature;BME280_humidity;BME280_pressure;Samples;Min_cycle;Max_cycle;Signal;HPM_P1;HPM_P2
2021/06/06 00:00:30;;;;;;;;;2.00;2.00;;;;;20.77;49.31;98692.81;4903761;28;104100;-91
2021/06/06 00:02:57;;;;;;;;;1.00;1.00;;;;;20.77;49.46;98700.22;4900694;28;103031;-91
2021/06/06 00:05:28;;;;;;;;;3.00;3.00;;;;;20.76;49.24;98701.31;4903332;28;111507;-91
2021/06/06 00:07:55;;;;;;;;;1.33;1.33;;;;;20.75;49.29;98699.69;4871112;28;102518;-91
2021/06/06 00:10:23;;;;;;;;;1.00;1.00;;;;;20.74;49.74;98700.78;4894759;28;104212;-91
2021/06/06 00:12:50;;;;;;;;;1.67;1.00;;;;;20.74;49.65;98698.03;4907487;28;104933;-91
2021/06/06 00:15:17;;;;;;;;;1.33;1.33;;;;;20.73;49.29;98699.09;4903425;28;102224;-91
2021/06/06 00:17:44;;;;;;;;;2.00;2.00;;;;;20.72;49.73;98706.53;4888734;28;103053;-92
2021/06/06 00:20:14;;;;;;;;;1.00;1.00;;;;;20.71;49.73;98699.41;4879542;28;104271;-92
2021/06/06 00:22:43;;;;;;;;;1.00;1.00;;;;;20.72;49.61;98713.94;4882526;28;104468;-91
2021/06/06 00:25:19;;;;;;;;;1.00;1.00;;;;;20.71;49.34;98704.88;4885811;28;102065;-92
2021/06/06 00:27:52;;;;;;;;;2.00;2.00;;;;;20.70;49.45;98703.22;4887687;28;105090;-91
2021/06/06 00:30:31;;;;;;;;;1.33;1.33;;;;;20.68;49.46;98693.56;4888018;28;103853;-92
2021/06/06 00:33:06;;;;;;;;;1.00;1.00;;;;;20.68;48.99;98699.06;4888763;28;103536;-91
2021/06/06 00:35:39;;;;;;;;;2.00;2.00;;;;;20.66;49.53;98707.59;4882072;28;102179;-92
2021/06/06 00:38:15;;;;;;;;;1.67;1.67;;;;;20.64;49.33;98703.44;4883812;28;102772;-86
2021/06/06 00:40:48;;;;;;;;;1.00;1.00;;;;;20.66;49.60;98706.75;4885783;28;103250;-92
2021/06/06 00:43:21;;;;;;;;;1.67;1.67;;;;;20.65;49.37;98705.09;4882805;28;104144;-92
2021/06/06 00:45:53;;;;;;;;;1.67;1.67;;;;;20.64;49.47;98703.44;4855339;28;102499;-91
2021/06/06 00:48:26;;;;;;;;;2.00;2.00;;;;;20.62;49.65;98705.63;4886156;28;102186;-91
2021/06/06 00:51:12;;;;;;;;;1.67;1.67;;;;;20.56;49.39;98695.69;4885987;28;103075;-91
2021/06/06 00:54:03;;;;;;;;;1.67;1.67;;;;;20.61;49.39;98709.47;4862781;28;102240;-90
2021/06/06 00:56:38;;;;;;;;;2.00;2.00;;;;;20.62;49.67;98711.13;4858047;28;102891;-91
2021/06/06 00:59:14;;;;;;;;;1.00;1.00;;;;;20.60;49.51;98718.78;4886853;28;102341;-92
2021/06/06 01:01:49;;;;;;;;;2.00;2.00;;;;;20.58;49.50;98710.81;4865299;28;108608;-92
2021/06/06 01:04:23;;;;;;;;;2.00;2.00;;;;;20.58;49.73;98705.31;4865006;28;102132;-92
2021/06/06 01:07:04;;;;;;;;;2.00;2.00;;;;;20.58;49.84;98713.56;4883722;28;102404;-91
2021/06/06 01:09:42;;;;;;;;;3.00;3.00;;;;;20.56;49.86;98707.50;4870695;28;102533;-91
2021/06/06 01:12:21;;;;;;;;;1.33;1.33;;;;;20.57;49.54;98708.34;4864798;28;108344;-88
2021/06/06 01:15:02;;;;;;;;;1.00;1.00;;;;;20.57;49.93;98713.84;4864296;28;102155;-91
2021/06/06 01:17:53;;;;;;;;;2.67;2.67;;;;;20.54;49.51;98715.16;4885074;28;102822;-91
2021/06/06 01:20:49;;;;;;;;;2.00;2.00;;;;;20.53;49.52;98710.78;4752788;28;103553;-91
2021/06/06 01:23:28;;;;;;;;;2.00;2.00;;;;;20.54;49.72;98714.34;4869929;28;109665;-90
2021/06/06 01:26:31;;;;;;;;;3.00;3.00;;;;;20.53;49.60;98713.53;4843143;28;102216;-91
2021/06/06 01:29:37;;;;;;;;;2.00;2.00;;;;;20.53;49.60;98707.22;4809798;28;102170;-91
2021/06/06 01:32:27;;;;;;;;;1.33;1.33;;;;;20.52;49.54;98711.03;4835958;28;103950;-91
2021/06/06 01:35:16;;;;;;;;;3.33;2.33;;;;;20.51;49.77;98706.63;4843021;28;108421;-91
2021/06/06 01:37:57;;;;;;;;;3.00;3.00;;;;;20.49;49.82;98701.41;4867129;28;102753;-92
2021/06/06 01:40:33;;;;;;;;;1.67;1.33;;;;;20.49;49.69;98702.22;4893866;28;102589;-91
2021/06/06 01:43:03;;;;;;;;;2.67;2.00;;;;;20.48;49.65;98699.75;4882299;28;103471;-91
2021/06/06 01:45:44;;;;;;;;;2.00;1.67;;;;;20.48;49.58;98706.09;4886022;28;104097;-91
2021/06/06 01:48:17;;;;;;;;;3.00;2.00;;;;;20.47;49.92;98692.59;4862790;28;102477;-91
2021/06/06 01:51:00;;;;;;;;;1.00;1.00;;;;;20.45;49.78;98706.59;4906764;28;104454;-91
2021/06/06 01:53:44;;;;;;;;;2.00;2.00;;;;;20.45;49.62;98701.09;4875965;28;102891;-91
2021/06/06 01:56:28;;;;;;;;;2.00;2.00;;;;;20.45;49.94;98703.84;4884002;28;109117;-91
2021/06/06 01:59:05;;;;;;;;;4.00;1.67;;;;;20.42;49.86;98704.38;4910710;28;102222;-91
2021/06/06 02:01:39;;;;;;;;;2.00;2.00;;;;;20.44;49.76;98710.41;4877669;28;102194;-91
2021/06/06 02:04:15;;;;;;;;;2.00;2.00;;;;;20.42;49.93;98707.13;4907260;28;102209;-91
2021/06/06 02:07:17;;;;;;;;;3.00;3.00;;;;;20.43;49.60;98708.78;4878356;28;107875;-88
2021/06/06 02:10:00;;;;;;;;;2.00;2.00;;;;;20.42;49.63;98712.63;4887625;28;102195;-91
2021/06/06 02:12:38;;;;;;;;;2.00;2.00;;;;;20.41;49.92;98716.44;4882060;28;102794;-91
2021/06/06 02:15:19;;;;;;;;;2.00;2.00;;;;;20.41;49.96;98716.44;4874629;28;103856;-91
2021/06/06 02:17:59;;;;;;;;;2.00;2.00;;;;;20.39;50.01;98715.91;4800221;28;108052;-91
2021/06/06 02:20:38;;;;;;;;;2.33;1.67;;;;;20.39;49.76;98718.66;4873297;28;102177;-91
2021/06/06 02:23:16;;;;;;;;;3.00;3.00;;;;;20.39;50.01;98715.91;4855750;28;102275;-91
2021/06/06 02:25:50;;;;;;;;;2.00;2.00;;;;;20.37;49.69;98712.56;4870709;28;102336;-90
2021/06/06 02:28:26;;;;;;;;;3.00;2.00;;;;;20.37;49.56;98715.31;4884296;28;103439;-92
2021/06/06 02:31:21;;;;;;;;;2.00;2.00;;;;;20.36;49.75;98713.66;4897960;28;102226;-91
2021/06/06 02:34:24;;;;;;;;;3.00;3.00;;;;;20.36;49.82;98719.16;4834877;28;102451;-92
2021/06/06 02:37:05;;;;;;;;;2.00;1.67;;;;;20.36;49.91;98713.66;4838902;28;102827;-91
2021/06/06 02:39:42;;;;;;;;;4.00;3.00;;;;;20.34;49.99;98715.84;4891691;28;103291;-91
2021/06/06 02:42:26;;;;;;;;;2.00;2.00;;;;;20.34;49.78;98707.59;4892277;28;102609;-92
2021/06/06 02:45:13;;;;;;;;;2.00;2.00;;;;;20.34;49.86;98717.75;4845979;28;102290;-92
2021/06/06 02:47:48;;;;;;;;;3.00;2.00;;;;;20.32;50.04;98709.78;4885080;28;104882;-92
2021/06/06 02:50:25;;;;;;;;;2.00;2.00;;;;;20.32;49.72;98707.03;4890972;28;108392;-91
2021/06/06 02:53:24;;;;;;;;;2.00;2.00;;;;;20.33;49.48;98703.19;4890683;28;102490;-91
2021/06/06 02:56:07;;;;;;;;;5.00;2.00;;;;;20.32;49.87;98706.19;4850825;28;102325;-90
2021/06/06 02:59:14;;;;;;;;;3.00;2.00;;;;;20.29;49.75;98702.03;4884804;28;102469;-91
2021/06/06 03:01:55;;;;;;;;;3.00;2.67;;;;;20.29;49.90;98701.22;4816357;28;107962;-91
2021/06/06 03:04:32;;;;;;;;;2.33;1.67;;;;;20.29;49.86;98702.03;4829236;28;102475;-92
2021/06/06 03:07:13;;;;;;;;;2.67;2.00;;;;;20.29;49.69;98704.78;4898696;28;102698;-91
2021/06/06 03:09:46;;;;;;;;;3.00;2.00;;;;;20.28;49.87;98705.88;4897769;28;102347;-91
2021/06/06 03:12:16;;;;;;;;;2.00;2.00;;;;;20.27;49.63;98709.69;4906011;28;108862;-91
2021/06/06 03:14:44;;;;;;;;;3.00;3.00;;;;;20.27;49.86;98709.69;4884170;28;102684;-91
2021/06/06 03:17:22;;;;;;;;;2.00;2.00;;;;;20.28;49.83;98714.09;4865069;28;102482;-91
2021/06/06 03:19:50;;;;;;;;;3.00;2.67;;;;;20.27;50.03;98712.44;4850924;28;102688;-91
2021/06/06 03:22:21;;;;;;;;;2.00;2.00;;;;;20.27;49.75;98715.19;4874747;28;104127;-88
2021/06/06 03:24:53;;;;;;;;;1.33;1.33;;;;;20.27;50.14;98712.44;4898265;28;102184;-90
2021/06/06 03:27:21;;;;;;;;;2.00;2.00;;;;;20.26;49.68;98710.78;4873581;28;102449;-91
2021/06/06 03:30:15;;;;;;;;;4.00;2.67;;;;;20.26;50.00;98712.72;4855429;28;102710;-91
2021/06/06 03:32:43;;;;;;;;;2.00;2.00;;;;;20.26;49.59;98718.22;4895220;28;104208;-91
2021/06/06 03:35:10;;;;;;;;;4.00;3.00;;;;;20.26;49.66;98708.03;4858748;28;102469;-91
2021/06/06 03:37:38;;;;;;;;;3.00;2.00;;;;;20.23;50.16;98705.81;4888700;28;103506;-92
2021/06/06 03:40:07;;;;;;;;;3.00;3.00;;;;;20.25;49.58;98716.56;4896619;28;102338;-91
2021/06/06 03:42:35;;;;;;;;;2.33;2.33;;;;;20.25;50.01;98711.88;4862562;28;104240;-91
2021/06/06 03:45:07;;;;;;;;;3.00;2.33;;;;;20.25;50.04;98725.63;4868835;28;102734;-91
2021/06/06 03:47:34;;;;;;;;;3.00;3.00;;;;;20.26;49.94;98721.75;4879837;28;104306;-91
2021/06/06 03:50:01;;;;;;;;;2.33;2.33;;;;;20.24;49.64;98721.22;4880486;28;102523;-92
2021/06/06 03:52:33;;;;;;;;;4.67;4.00;;;;;20.25;49.77;98722.03;4879743;28;104231;-92
2021/06/06 03:55:02;;;;;;;;;3.00;3.00;;;;;20.24;49.78;98718.47;4893597;28;102259;-91
2021/06/06 03:57:32;;;;;;;;;3.00;3.00;;;;;20.24;49.75;98726.69;4886876;28;102514;-90
2021/06/06 04:00:00;;;;;;;;;2.33;2.33;;;;;20.25;49.87;98724.78;4884838;28;105393;-91
2021/06/06 04:02:27;;;;;;;;;2.67;2.00;;;;;20.25;49.77;98722.88;4863896;28;104896;-91
2021/06/06 04:04:54;;;;;;;;;2.00;2.00;;;;;20.25;49.83;98728.38;4898919;28;102122;-91
2021/06/06 04:07:21;;;;;;;;;2.00;2.00;;;;;20.24;49.95;98725.88;4886782;28;102166;-90
2021/06/06 04:09:49;;;;;;;;;2.00;2.00;;;;;20.24;49.63;98723.13;4888109;28;102133;-91
2021/06/06 04:12:16;;;;;;;;;2.67;2.00;;;;;20.23;49.68;98726.94;4891780;28;109156;-91
2021/06/06 04:14:43;;;;;;;;;3.00;2.33;;;;;20.23;49.72;98732.44;4885318;28;102223;-90
2021/06/06 04:17:10;;;;;;;;;3.00;2.00;;;;;20.22;49.89;98726.13;4901323;28;102323;-91
2021/06/06 04:19:37;;;;;;;;;3.00;2.33;;;;;20.24;49.54;98721.22;4899840;28;102282;-90
2021/06/06 04:22:04;;;;;;;;;3.00;3.00;;;;;20.24;49.62;98726.69;4910563;28;104103;-90
2021/06/06 04:24:32;;;;;;;;;3.00;2.00;;;;;20.24;49.68;98720.38;4902266;28;102852;-90
2021/06/06 04:26:59;;;;;;;;;2.00;2.00;;;;;20.23;49.46;98716.81;4912838;28;102536;-90
2021/06/06 04:29:26;;;;;;;;;2.00;2.00;;;;;20.25;49.89;98720.13;4888846;28;102610;-90
2021/06/06 04:31:53;;;;;;;;;3.00;2.00;;;;;20.25;49.44;98731.13;4904172;28;104350;-91
2021/06/06 04:34:20;;;;;;;;;2.67;2.00;;;;;20.26;49.81;98729.19;4902791;28;102360;-92
2021/06/06 04:36:49;;;;;;;;;2.33;2.33;;;;;20.26;49.60;98724.50;4905203;28;102495;-91
2021/06/06 04:39:17;;;;;;;;;2.00;2.00;;;;;20.26;49.75;98730.00;4892353;28;102263;-91
2021/06/06 04:41:44;;;;;;;;;2.00;2.00;;;;;20.26;49.40;98732.75;4914646;28;104078;-91
2021/06/06 04:44:11;;;;;;;;;2.00;2.00;;;;;20.26;49.51;98737.44;4906610;28;103608;-91
2021/06/06 04:46:38;;;;;;;;;2.00;2.00;;;;;20.27;49.43;98737.16;4899428;28;103548;-92
2021/06/06 04:49:05;;;;;;;;;3.67;3.00;;;;;20.26;49.55;98723.72;4901114;28;102596;-90
2021/06/06 04:51:32;;;;;;;;;3.00;3.00;;;;;20.28;49.74;98738.00;4907247;28;103619;-91
2021/06/06 04:53:59;;;;;;;;;2.00;2.00;;;;;20.28;49.68;98735.25;4890750;28;102938;-90
2021/06/06 04:56:28;;;;;;;;;4.00;3.33;;;;;20.28;49.46;98743.47;4909567;28;102264;-90
2021/06/06 04:58:55;;;;;;;;;3.00;3.00;;;;;20.30;49.37;98738.59;4904444;28;102238;-91
2021/06/06 05:01:22;;;;;;;;;3.00;3.00;;;;;20.30;49.37;98741.34;4883341;28;104126;-90
2021/06/06 05:03:50;;;;;;;;;2.33;2.33;;;;;20.30;49.69;98741.34;4910072;28;102185;-92
2021/06/06 05:06:17;;;;;;;;;3.00;3.00;;;;;20.29;49.31;98735.00;4896256;28;102418;-91
2021/06/06 05:08:44;;;;;;;;;2.33;2.00;;;;;20.30;49.54;98742.19;4902221;28;104672;-91
2021/06/06 05:11:12;;;;;;;;;2.00;2.00;;;;;20.30;49.54;98742.19;4903350;28;104063;-91
2021/06/06 05:13:39;;;;;;;;;2.00;2.00;;;;;20.31;49.28;98752.06;4906988;28;102121;-90
2021/06/06 05:16:07;;;;;;;;;2.00;2.00;;;;;20.32;49.54;98742.72;4890538;28;102216;-92
2021/06/06 05:18:35;;;;;;;;;3.00;2.33;;;;;20.33;49.46;98749.88;4915172;28;102333;-91
2021/06/06 05:21:02;;;;;;;;;2.00;2.00;;;;;20.33;49.22;98744.41;4892271;28;102265;-91
2021/06/06 05:23:30;;;;;;;;;3.00;3.00;;;;;20.34;49.13;98735.06;4883557;28;102533;-92
2021/06/06 05:25:57;;;;;;;;;3.00;2.00;;;;;20.34;49.34;98737.00;4912030;28;110770;-91
2021/06/06 05:28:29;;;;;;;;;2.67;2.00;;;;;20.35;49.55;98738.66;4889687;28;102606;-90
2021/06/06 05:30:56;;;;;;;;;3.00;2.00;;;;;20.35;49.11;98747.69;4889697;28;104378;-91
2021/06/06 05:33:23;;;;;;;;;3.00;2.00;;;;;20.37;49.38;98753.78;4910929;28;102722;-87
2021/06/06 05:35:51;;;;;;;;;2.00;2.00;;;;;20.36;49.22;98743.88;4916550;28;104723;-91
2021/06/06 05:38:18;;;;;;;;;1.67;1.67;;;;;20.38;49.07;98738.97;4889499;28;102338;-90
2021/06/06 05:40:46;;;;;;;;;2.00;2.00;;;;;20.39;49.38;98757.09;4889671;28;104289;-91
2021/06/06 05:43:13;;;;;;;;;2.00;2.00;;;;;20.41;49.38;98745.81;4903675;28;102534;-91
2021/06/06 05:45:40;;;;;;;;;1.67;1.67;;;;;20.41;48.82;98741.16;4909322;28;104498;-91
2021/06/06 05:48:08;;;;;;;;;2.00;2.00;;;;;20.42;49.16;98748.31;4893473;28;103438;-91
2021/06/06 05:50:37;;;;;;;;;2.00;2.00;;;;;20.43;49.45;98741.75;4909865;28;104086;-91
2021/06/06 05:53:04;;;;;;;;;2.33;2.00;;;;;20.43;49.29;98746.41;4894687;28;103050;-90
2021/06/06 05:55:32;;;;;;;;;2.33;2.33;;;;;20.43;49.00;98735.44;4900620;28;102634;-91
2021/06/06 05:57:59;;;;;;;;;2.00;2.00;;;;;20.44;49.17;98742.59;4897037;28;102484;-91
2021/06/06 06:00:29;;;;;;;;;2.00;2.00;;;;;20.43;49.08;98741.75;4907013;28;104446;-92
2021/06/06 06:02:56;;;;;;;;;3.00;3.00;;;;;20.43;49.12;98744.50;4878433;28;102277;-90
2021/06/06 06:05:23;;;;;;;;;2.00;2.00;;;;;20.39;49.40;98737.03;4910844;28;102368;-91
2021/06/06 06:07:51;;;;;;;;;2.67;2.67;;;;;20.42;49.10;98740.09;4915299;28;102321;-91
2021/06/06 06:10:24;;;;;;;;;3.33;2.00;;;;;20.44;49.36;98748.88;4898623;28;104114;-91
2021/06/06 06:12:51;;;;;;;;;3.00;2.33;;;;;20.43;49.18;98746.41;4909617;28;102382;-91
2021/06/06 06:15:18;;;;;;;;;2.67;2.67;;;;;20.43;49.02;98751.91;4915853;28;102070;-91
2021/06/06 06:17:46;;;;;;;;;2.00;1.00;;;;;20.43;49.38;98758.22;4893922;28;103894;-90
2021/06/06 06:20:15;;;;;;;;;1.33;1.33;;;;;20.44;49.10;98751.63;4914685;28;104346;-91
2021/06/06 06:22:42;;;;;;;;;2.00;2.00;;;;;20.44;49.43;98759.88;4912998;28;102150;-91
2021/06/06 06:25:10;;;;;;;;;4.00;3.00;;;;;20.45;49.02;98752.47;4889703;28;105108;-91
2021/06/06 06:27:37;;;;;;;;;2.00;2.00;;;;;20.44;49.17;98751.63;4908652;28;102601;-92
2021/06/06 06:30:10;;;;;;;;;2.00;2.00;;;;;20.44;49.33;98748.88;4900213;28;104104;-91
2021/06/06 06:32:37;;;;;;;;;1.67;1.67;;;;;20.46;49.26;98759.63;4904073;28;102194;-90
2021/06/06 06:35:05;;;;;;;;;2.67;2.67;;;;;20.46;49.31;98757.69;4904245;28;102543;-90
2021/06/06 06:37:32;;;;;;;;;2.33;2.33;;;;;20.46;49.19;98746.72;4912104;28;102510;-90
2021/06/06 06:39:59;;;;;;;;;2.00;2.00;;;;;20.46;49.22;98754.94;4902957;28;105085;-90
2021/06/06 06:42:26;;;;;;;;;1.00;1.00;;;;;20.47;48.92;98748.38;4912723;28;102233;-91
2021/06/06 06:44:54;;;;;;;;;2.00;2.00;;;;;20.47;49.03;98753.88;4914643;28;104543;-91
2021/06/06 06:47:21;;;;;;;;;2.00;2.00;;;;;20.48;48.81;98750.03;4903900;28;102205;-91
2021/06/06 06:49:48;;;;;;;;;3.00;2.33;;;;;20.48;48.90;98752.78;4911674;28;104043;-90
2021/06/06 06:52:15;;;;;;;;;3.00;2.67;;;;;20.48;48.96;98754.69;4912973;28;102556;-90
2021/06/06 06:54:42;;;;;;;;;2.00;2.00;;;;;20.49;48.89;98753.59;4906309;28;102522;-90
2021/06/06 06:57:09;;;;;;;;;2.00;2.00;;;;;20.51;48.88;98758.84;4910937;28;102701;-91
2021/06/06 06:59:37;;;;;;;;;3.00;3.00;;;;;20.50;49.06;98769.00;4917275;28;104010;-91
2021/06/06 07:02:04;;;;;;;;;3.00;2.33;;;;;20.50;49.22;98755.25;4906423;28;106155;-90
2021/06/06 07:04:32;;;;;;;;;2.67;2.00;;;;;20.49;49.29;98759.91;4892678;28;104569;-91
2021/06/06 07:06:59;;;;;;;;;3.00;2.00;;;;;20.51;49.05;98758.84;4901207;28;102596;-91
2021/06/06 07:09:26;;;;;;;;;1.33;1.33;;;;;20.51;49.03;98775.31;4912726;28;104282;-91
2021/06/06 07:11:55;;;;;;;;;1.33;1.33;;;;;20.52;49.09;98766.00;4910959;28;102435;-91
2021/06/06 07:14:23;;;;;;;;;2.67;2.00;;;;;20.52;49.03;98763.25;4886917;28;102797;-90
2021/06/06 07:16:50;;;;;;;;;2.33;2.33;;;;;20.52;49.15;98760.50;4892518;28;102655;-90
2021/06/06 07:19:18;;;;;;;;;1.00;1.00;;;;;20.52;49.13;98757.75;4882153;28;103953;-90
2021/06/06 07:21:45;;;;;;;;;3.00;3.00;;;;;20.53;48.82;98756.66;4909898;28;102082;-91
2021/06/06 07:24:12;;;;;;;;;2.00;2.00;;;;;20.53;49.14;98760.25;4886626;28;102746;-90
2021/06/06 07:26:44;;;;;;;;;2.00;2.00;;;;;20.53;49.20;98751.16;4903613;28;102985;-91
2021/06/06 07:29:14;;;;;;;;;1.33;1.33;;;;;20.54;49.08;98750.06;4886559;28;104120;-90
2021/06/06 07:31:41;;;;;;;;;3.00;2.00;;;;;20.54;49.27;98748.13;4898209;28;102095;-91
2021/06/06 07:34:14;;;;;;;;;2.00;2.00;;;;;20.56;48.73;98753.38;4898939;28;104575;-91
2021/06/06 07:36:43;;;;;;;;;2.67;2.67;;;;;20.55;49.03;98751.72;4900361;28;102096;-91
2021/06/06 07:39:10;;;;;;;;;2.00;1.67;;;;;20.56;49.08;98761.63;4891590;28;105893;-91
2021/06/06 07:41:38;;;;;;;;;3.33;2.67;;;;;20.57;48.87;98758.63;4904460;28;102210;-91
2021/06/06 07:44:06;;;;;;;;;2.00;2.00;;;;;20.57;48.74;98752.31;4908253;28;102154;-91
2021/06/06 07:46:33;;;;;;;;;2.00;2.00;;;;;20.56;49.13;98751.47;4894450;28;104956;-91
2021/06/06 07:49:00;;;;;;;;;1.67;1.67;;;;;20.57;48.76;98746.81;4880123;28;104027;-91
2021/06/06 07:51:28;;;;;;;;;2.00;2.00;;;;;20.58;48.72;98753.97;4908162;28;102368;-90
2021/06/06 07:53:55;;;;;;;;;2.67;2.00;;;;;20.58;48.92;98753.97;4891630;28;102582;-91
2021/06/06 07:56:22;;;;;;;;;2.00;2.00;;;;;20.59;48.84;98755.59;4906104;28;104009;-90
2021/06/06 07:58:49;;;;;;;;;4.00;2.00;;;;;20.60;48.93;98751.78;4897591;28;104388;-91
2021/06/06 08:01:16;;;;;;;;;2.00;1.00;;;;;20.59;48.78;98755.59;4908254;28;104912;-91
2021/06/06 08:03:44;;;;;;;;;3.00;2.00;;;;;20.61;48.92;98750.69;4892596;28;102598;-91
2021/06/06 08:06:11;;;;;;;;;2.67;2.67;;;;;20.61;49.02;98751.50;4893891;28;102211;-91
2021/06/06 08:08:38;;;;;;;;;2.00;2.00;;;;;20.62;48.80;98750.44;4893919;28;103037;-91
2021/06/06 08:11:07;;;;;;;;;2.00;2.00;;;;;20.61;48.72;98743.28;4884965;28;103602;-91
2021/06/06 08:13:35;;;;;;;;;3.00;2.00;;;;;20.62;49.06;98755.09;4893949;28;102280;-91
2021/06/06 08:16:03;;;;;;;;;2.67;2.00;;;;;20.63;48.85;98753.97;4911385;28;102707;-91
2021/06/06 08:18:32;;;;;;;;;1.00;1.00;;;;;20.64;49.20;98747.41;4884218;28;104271;-91
2021/06/06 08:21:21;;;;;;;;;2.00;2.00;;;;;20.64;49.12;98752.91;4885203;28;102256;-91
2021/06/06 08:23:49;;;;;;;;;1.67;1.67;;;;;20.64;48.67;98753.72;4906946;28;101292;-92
2021/06/06 08:26:17;;;;;;;;;2.67;2.67;;;;;20.66;49.00;98753.47;4917697;28;102032;-91
2021/06/06 08:28:45;;;;;;;;;1.00;1.00;;;;;20.66;49.19;98747.97;4877785;28;104090;-91
2021/06/06 08:31:15;;;;;;;;;2.00;1.33;;;;;20.65;48.83;98743.56;4891815;28;103014;-91
2021/06/06 08:33:42;;;;;;;;;2.00;2.00;;;;;20.69;48.81;98747.44;4907954;28;110065;-92
2021/06/06 08:36:24;;;;;;;;;2.00;2.00;;;;;20.57;48.62;98730.31;4903011;28;104878;-92
2021/06/06 08:38:51;;;;;;;;;2.00;2.00;;;;;20.70;48.85;98755.44;4913023;28;104053;-91
2021/06/06 08:41:22;;;;;;;;;2.00;2.00;;;;;20.71;48.69;98754.34;4917930;28;102580;-91
2021/06/06 08:43:55;;;;;;;;;2.33;2.00;;;;;20.72;48.59;98757.91;4903249;28;104832;-91
2021/06/06 08:46:23;;;;;;;;;2.00;2.00;;;;;20.73;49.01;98748.56;4897136;28;103004;-91
2021/06/06 08:48:51;;;;;;;;;1.33;1.33;;;;;20.73;48.59;98757.66;4906060;28;103973;-91
2021/06/06 08:51:23;;;;;;;;;2.67;2.67;;;;;20.74;48.77;98753.81;4893114;28;103867;-92
2021/06/06 08:54:14;;;;;;;;;2.33;2.33;;;;;20.75;48.92;98751.91;4877244;28;102526;-91
2021/06/06 08:56:42;;;;;;;;;1.67;1.67;;;;;20.76;48.57;98732.38;4855527;28;102512;-91
2021/06/06 08:59:20;;;;;;;;;1.67;1.67;;;;;20.77;48.90;98742.28;4873898;28;104013;-91
2021/06/06 09:02:06;;;;;;;;;1.33;1.33;;;;;20.80;48.89;98743.69;4893933;28;106344;-91
2021/06/06 09:04:34;;;;;;;;;1.00;1.00;;;;;20.78;48.53;98743.94;4842327;28;102205;-91
2021/06/06 09:07:07;;;;;;;;;2.00;2.00;;;;;20.80;48.63;98746.44;4915197;28;104706;-91
2021/06/06 09:09:38;;;;;;;;;1.00;1.00;;;;;20.79;48.82;98745.63;4876802;28;104111;-91
2021/06/06 09:12:08;;;;;;;;;2.67;2.67;;;;;20.81;48.62;98748.91;4909839;28;102086;-91
2021/06/06 09:14:35;;;;;;;;;3.00;2.67;;;;;20.80;48.69;98749.19;4916786;28;102590;-91
2021/06/06 09:17:05;;;;;;;;;2.00;2.00;;;;;20.79;48.47;98744.78;4899918;28;102243;-91
2021/06/06 09:19:47;;;;;;;;;2.00;2.00;;;;;20.81;48.88;98750.81;4890938;28;103768;-91
2021/06/06 09:22:16;;;;;;;;;2.00;2.00;;;;;20.81;48.80;98739.84;4907348;28;102586;-91
2021/06/06 09:24:47;;;;;;;;;1.67;1.33;;;;;20.82;48.84;98744.25;4888229;28;104441;-91
2021/06/06 09:27:25;;;;;;;;;1.67;1.33;;;;;20.84;48.69;98744.81;4909436;28;102151;-90
2021/06/06 09:30:00;;;;;;;;;1.00;1.00;;;;;20.86;48.88;98746.19;4908588;28;107297;-91
2021/06/06 09:32:27;;;;;;;;;1.33;1.33;;;;;20.85;48.41;98743.72;4907316;28;102302;-91
2021/06/06 09:35:05;;;;;;;;;3.00;3.00;;;;;20.85;48.65;98736.28;4890803;28;102536;-91
2021/06/06 09:37:34;;;;;;;;;1.33;1.33;;;;;20.85;48.65;98741.78;4885952;28;102291;-91
2021/06/06 09:40:07;;;;;;;;;1.33;1.33;;;;;20.87;48.76;98728.63;4898268;28;103186;-90
2021/06/06 09:42:38;;;;;;;;;2.33;2.00;;;;;20.87;48.23;98728.63;4904531;28;102252;-91
2021/06/06 09:45:12;;;;;;;;;2.33;1.33;;;;;20.89;49.04;98728.38;4888277;28;104259;-91
2021/06/06 09:47:39;;;;;;;;;1.67;1.67;;;;;20.89;48.47;98729.19;4890679;28;102457;-91
2021/06/06 09:50:18;;;;;;;;;2.00;2.00;;;;;20.90;48.89;98730.84;4898111;28;104083;-91
2021/06/06 09:52:47;;;;;;;;;1.00;1.00;;;;;20.92;48.26;98727.84;4890249;28;102766;-90
2021/06/06 09:55:25;;;;;;;;;2.00;2.00;;;;;20.91;48.46;98727.00;4904586;28;102528;-91
2021/06/06 09:58:05;;;;;;;;;2.00;2.00;;;;;20.92;48.95;98717.66;4910467;28;102465;-91
2021/06/06 10:00:40;;;;;;;;;2.00;2.00;;;;;20.94;48.73;98722.88;4892224;28;109174;-90
2021/06/06 10:03:33;;;;;;;;;2.67;1.67;;;;;20.96;48.49;98723.47;4891776;28;103444;-92
2021/06/06 10:06:12;;;;;;;;;1.00;1.00;;;;;20.96;48.23;98728.97;4880555;28;102122;-91
2021/06/06 10:08:39;;;;;;;;;1.00;1.00;;;;;20.93;48.91;98730.31;4891191;28;102432;-91
2021/06/06 10:11:12;;;;;;;;;2.00;2.00;;;;;20.98;48.49;98721.28;4901995;28;104042;-91
2021/06/06 10:13:45;;;;;;;;;1.00;1.00;;;;;20.99;48.69;98720.16;4902862;28;102196;-91
2021/06/06 10:16:21;;;;;;;;;1.00;1.00;;;;;21.00;48.09;98729.25;4885197;28;102113;-92
2021/06/06 10:19:16;;;;;;;;;1.67;1.67;;;;;21.00;48.28;98724.59;4882185;28;104302;-91
2021/06/06 10:21:44;;;;;;;;;2.00;1.33;;;;;21.02;48.02;98724.31;4843342;28;108848;-91
2021/06/06 10:24:14;;;;;;;;;2.00;2.00;;;;;21.02;48.77;98716.91;4872988;28;102177;-92
2021/06/06 10:26:57;;;;;;;;;2.00;2.00;;;;;21.02;48.26;98719.66;4896814;28;102068;-91
2021/06/06 10:29:42;;;;;;;;;1.00;1.00;;;;;21.04;48.17;98719.38;4888993;28;102250;-92
2021/06/06 10:32:27;;;;;;;;;1.00;1.00;;;;;21.04;48.58;98717.47;4813271;28;108781;-92
2021/06/06 10:35:00;;;;;;;;;1.33;1.33;;;;;21.06;48.11;98718.03;4893334;28;102152;-92
2021/06/06 10:37:29;;;;;;;;;1.00;1.00;;;;;21.05;48.57;98710.88;4891277;28;102426;-92
2021/06/06 10:39:59;;;;;;;;;0.33;0.33;;;;;21.07;48.67;98718.88;4891786;28;102251;-91
2021/06/06 10:42:29;;;;;;;;;3.00;1.67;;;;;21.07;48.12;98714.19;4886008;28;108990;-92
2021/06/06 10:45:06;;;;;;;;;1.00;1.00;;;;;21.08;48.62;98715.00;4888835;28;102953;-93
2021/06/06 10:47:48;;;;;;;;;2.00;2.00;;;;;21.09;48.62;98711.16;4821436;28;104694;-93
2021/06/06 10:50:29;;;;;;;;;1.00;1.00;;;;;21.10;48.27;98715.56;4887300;28;102554;-92
2021/06/06 10:53:06;;;;;;;;;1.33;1.33;;;;;21.10;48.61;98702.66;4888883;28;109472;-92
2021/06/06 10:55:35;;;;;;;;;2.00;1.00;;;;;21.11;48.61;98704.31;4861406;28;102260;-92
2021/06/06 10:58:14;;;;;;;;;2.00;1.33;;;;;21.12;48.62;98702.41;4872202;28;103135;-92
2021/06/06 11:00:42;;;;;;;;;1.67;1.67;;;;;21.13;48.51;98701.31;4887044;28;102501;-92
2021/06/06 11:03:12;;;;;;;;;1.00;1.00;;;;;21.13;48.41;98706.81;4876054;28;104010;-92
2021/06/06 11:05:50;;;;;;;;;2.33;2.00;;;;;21.14;48.52;98703.81;4907560;28;107217;-92
2021/06/06 11:08:33;;;;;;;;;1.00;1.00;;;;;21.15;48.18;98702.72;4907491;28;102240;-92
2021/06/06 11:11:23;;;;;;;;;1.00;1.00;;;;;21.15;48.22;98699.13;4914906;28;102791;-91
2021/06/06 11:13:52;;;;;;;;;1.00;1.00;;;;;21.17;48.11;98708.75;4905976;28;104099;-92
2021/06/06 11:16:23;;;;;;;;;2.00;1.00;;;;;21.18;48.37;98702.16;4883660;28;105524;-92
2021/06/06 11:18:54;;;;;;;;;1.00;1.00;;;;;21.19;48.55;98705.75;4907798;28;102266;-93
2021/06/06 11:21:30;;;;;;;;;2.00;2.00;;;;;21.19;48.39;98701.09;4913321;28;102691;-91
2021/06/06 11:23:59;;;;;;;;;1.00;1.00;;;;;21.20;48.61;98697.25;4908190;28;108910;-93
2021/06/06 11:26:32;;;;;;;;;1.00;0.33;;;;;21.21;48.19;98704.38;4885774;28;102507;-92
2021/06/06 11:29:08;;;;;;;;;2.00;2.00;;;;;21.23;48.34;98695.88;4921232;28;102730;-92
2021/06/06 11:31:35;;;;;;;;;1.00;1.00;;;;;21.21;47.88;98693.38;4860461;28;102215;-92
2021/06/06 11:34:29;;;;;;;;;1.00;1.00;;;;;21.23;48.18;98684.88;4891453;28;104165;-92
2021/06/06 11:37:22;;;;;;;;;1.00;1.00;;;;;21.22;48.02;98695.03;4892527;28;102388;-92
2021/06/06 11:39:49;;;;;;;;;1.67;1.67;;;;;21.23;48.37;98690.38;4851921;28;102687;-92
2021/06/06 11:42:22;;;;;;;;;1.00;1.00;;;;;21.24;48.41;98681.88;4902028;28;102388;-92
2021/06/06 11:45:00;;;;;;;;;1.00;1.00;;;;;21.24;48.37;98690.13;4908440;28;104043;-93
2021/06/06 11:47:48;;;;;;;;;1.00;1.00;;;;;21.26;48.22;98685.16;4879624;28;102674;-91
2021/06/06 11:50:26;;;;;;;;;0.33;0.33;;;;;21.26;48.40;98667.81;4838522;28;104513;-92